Terminal Aerodrome Forecast
Issued by NWS Albuquerque, NM

Home | Current Version | Previous Version | Text Only | Print | Product List | Glossary On
Versions: 1 2 3 4 5 6 7 8 9 10 11 12 13 14 15
000
FTUS45 KABQ 221800 RRA
TAFABQ
TAF
KABQ 221800Z 2218/2318 VRB05KT P6SM -SHRA SCT030 BKN080
      TEMPO 2218/2219 6SM -RA BKN025
     FM221900 VRB05KT P6SM VCSH SCT050 BKN080
     FM222100 19010KT P6SM VCTS SCT060CB BKN100
      TEMPO 2221/2224 VRB15G25KT -SHRA BKN050
     FM230000 22008KT P6SM -SHRA SCT050 BKN080
     FM230300 17006KT P6SM SKC=

USA.gov is the U.S. government's official web portal to all federal, state and local government web resources and services.